AirNav   Pilot Hours Calculator
 
 828 users online  

NH40 Eagles Nest Airport
New London, New Hampshire, USA

GOING TO NEW LONDON?


FAA INFORMATION EFFECTIVE 30 JANUARY 2020

Location

FAA Identifier: NH40
Lat/Long: 43-24-16.7700N 071-57-01.2980W
43-24.279500N 071-57.021633W
43.4046583,-71.9503606
(estimated)
Elevation: 998 ft. / 304 m (estimated)
Variation: 16W (1985)
From city: 2 miles ESE of NEW LONDON, NH
Time zone: UTC -5 (UTC -4 during Daylight Saving Time)
Zip code: 03257

Airport Operations

Airport use: Private use. Permission required prior to landing
Activation date: 10/1981
Control tower: no
ARTCC: BOSTON CENTER
FSS: BANGOR FLIGHT SERVICE STATION
Attendance: AL DAYLIGHT HOURS
Segmented circle: no

Airport Communications

UNICOM: 122.8

Nearby radio navigation aids

VOR radial/distance  VOR name  Freq  Var
CONr319/19.8CONCORD VOR/DME112.9015W
LEBr160/20.1LEBANON VOR/DME113.7015W
EENr036/39.6KEENE VORTAC109.4014W

 
NDB name  Hdg/Dist  Freq  Var  ID
CLAREMONT099/18.523316WCNH -.-. -. ....
HANOVER166/20.427615WLAH .-.. .- ....

Airport Services

Runway Information

Runway 14/32

Dimensions: 2800 x 30 ft. / 853 x 9 m
Surface: asphalt, in fair condition
RUNWAY 14  RUNWAY 32
Traffic pattern: leftleft
Obstructions: plinenone

Airport Ownership and Management from official FAA records

Ownership: Privately-owned
Owner: EAGLES NEST OWNERS ASSN
PO BOX 2460
NEW LONDON, NH 03257
Phone 603-526-6040
Manager: MANAGER
PO BOX 2460
NEW LONDON, NH 03257
Phone 603-526-6040

Additional Remarks

DO NOT CHART.
RY 32 LAND ONLY. RY 14 DEPART ONLY
NOT MAINTAINED IN WINTER.
FOR CD CTC BOSTON ARTCC AT 603-879-6859.

Instrument Procedures

There are no published instrument procedures at NH40.

Some nearby airports with instrument procedures:

2B3 - Parlin Field Airport (10 nm W)
KCNH - Claremont Municipal Airport (18 nm W)
KLEB - Lebanon Municipal Airport (20 nm NW)
KCON - Concord Municipal Airport (23 nm SE)
KVSF - Hartness State Airport (Springfield) (25 nm W)
 
Loc | Ops | Rwys | IFR | FBO | Links
Com | Nav | Svcs | Stats | Notes
Area around NH40 (Eagles Nest Airport)
 
Road maps at: MapQuest Bing Google
 
Aerial photo
WARNING: Photo may not be current or correct
Aerial photo of NH40 (Eagles Nest Airport)
Do you have a better or more recent aerial photo of Eagles Nest Airport that you would like to share? If so, please send us your photo.

 
Sectional chart

 
Airport distance calculator
Flying to Eagles Nest Airport? Find the distance to fly.

From to NH40

Sunrise and sunset
Times for 16-Feb-2020
 Local
(UTC-5)
 Zulu
(UTC)
Morning civil twilight06:1611:16
Sunrise06:4611:46
Sunset17:1822:18
Evening civil twilight17:4822:48

Current date and time
Zulu (UTC)  17-Feb-2020 04:13:30
Local (UTC-5)  16-Feb-2020 23:13:30
 
METAR
KLEB 
20nm NW 
170353Z AUTO 17004KT 10SM OVC044 M02/M06 A3002 RMK AO2 SLP175 T10171056
KCON 
23nm SE 
170351Z AUTO 18005KT 10SM CLR M02/M06 A3004 RMK AO2 SLP177 T10221061
K1P1 
24nm N 
170355Z AUTO 00000KT 10SM OVC046 M06/M07 A3003 RMK AO2 T10611066 400051146
KVSF 
25nm W 
170354Z AUTO 00000KT 10SM OVC048 M02/M04 A3004 RMK AO2 SLP180 T10221044
KLCI 
25nm NE 
170356Z AUTO 26005KT 10SM FEW047 00/M04 A3003 RMK AO2 SLP175 T00001039 FZRANO
KEEN 
34nm SW 
170356Z AUTO 00000KT 10SM CLR M02/M04 A3005 RMK AO2 SLP188 T10221044 FZRANO $
KMHT 
36nm SE 
170353Z 20004KT 10SM BKN046 02/M06 A3004 RMK AO2 SLP190 T00221056
KAFN 
36nm S 
170352Z AUTO 00000KT 10SM CLR M01/M04 A3003 RMK AO2 SLP185 T10111039
TAF
KLEB 
20nm NW 
161720Z 1618/1718 23004KT P6SM OVC040 FM170000 29002KT P6SM BKN120
KCON 
23nm SE 
161720Z 1618/1718 23006KT P6SM OVC070 FM162000 27004KT P6SM BKN250 FM171600 30011G17KT P6SM SKC
NOTAMs
Click for the latest NOTAMs
NOTAMs are issued by the DoD/FAA and will open in a separate window not controlled by AirNav.

 

 
 

Would you like to see your business listed on this page?

 If your business provides an interesting product or service to pilots, flight crews, aircraft, or users of the Eagles Nest Airport, you should consider listing it here.  To start the listing process, click on the button below
 
Add a business
 

Other Pages about Eagles Nest Airport

Update a link
 
Copyright © AirNav, LLC. All rights reserved. Privacy Policy  Contact